Time;durP1;ratioP1;P1;durP2;ratioP2;P2;SDS_P1;SDS_P2;PMS_P1;PMS_P2;Temp;Humidity;BMP_temperature;BMP_pressure;BME280_temperature;BME280_humidity;BME280_pressure;Samples;Min_cycle;Max_cycle;Signal;HPM_P1;HPM_P2
2023/10/12 00:02:13;;;;;;;16.60;8.55;;;;;;;9.97;100.00;94182.06;5029505;28;20046;-59
2023/10/12 00:05:00;;;;;;;16.50;8.60;;;;;;;9.94;100.00;94174.63;5029663;28;20045;-60
2023/10/12 00:07:33;;;;;;;15.83;8.20;;;;;;;9.89;100.00;94178.59;5029481;28;20034;-60
2023/10/12 00:10:19;;;;;;;16.73;8.23;;;;;;;9.91;100.00;94176.25;5029378;28;20072;-60
2023/10/12 00:12:50;;;;;;;19.75;8.80;;;;;;;9.98;100.00;94176.19;5028827;28;20376;-60
2023/10/12 00:17:51;;;;;;;17.25;8.70;;;;;;;9.91;100.00;94180.94;5029394;28;20049;-60
2023/10/12 00:20:38;;;;;;;15.13;8.70;;;;;;;9.94;100.00;94180.91;5028056;28;20103;-60
2023/10/12 00:23:09;;;;;;;15.23;8.52;;;;;;;9.96;100.00;94180.50;5028624;28;20464;-60
2023/10/12 00:25:46;;;;;;;16.33;8.73;;;;;;;9.92;100.00;94177.00;5028129;28;20045;-60
2023/10/12 00:28:18;;;;;;;16.95;8.23;;;;;;;9.98;100.00;94178.94;5028441;28;20053;-60
2023/10/12 00:30:49;;;;;;;18.85;8.80;;;;;;;9.93;100.00;94184.06;5029277;28;20500;-60
2023/10/12 00:33:19;;;;;;;17.90;8.43;;;;;;;9.92;100.00;94180.56;5028792;28;20050;-60
2023/10/12 00:35:51;;;;;;;40.85;22.90;;;;;;;10.07;100.00;94183.94;5027419;28;20053;-59
2023/10/12 00:38:22;;;;;;;22.23;11.35;;;;;;;10.04;100.00;94181.22;5028702;28;20050;-60
2023/10/12 00:41:04;;;;;;;22.00;9.48;;;;;;;10.09;100.00;94180.78;5027574;28;20092;-60
2023/10/12 00:43:36;;;;;;;17.27;9.02;;;;;;;10.11;100.00;94178.41;5027998;28;21650;-60
2023/10/12 00:46:20;;;;;;;16.10;8.33;;;;;;;10.06;100.00;94179.66;5028352;28;20114;-59
2023/10/12 00:48:50;;;;;;;16.52;8.52;;;;;;;10.10;100.00;94177.66;5028670;28;20041;-59
2023/10/12 00:51:17;;;;;;;21.25;10.20;;;;;;;9.81;100.00;94177.09;5028772;28;20046;-61
2023/10/12 00:53:57;;;;;;;20.60;9.23;;;;;;;9.94;100.00;94178.19;5027447;28;20037;-61
2023/10/12 00:56:25;;;;;;;20.88;9.00;;;;;;;10.04;100.00;94173.78;5028765;28;20098;-60
2023/10/12 00:58:55;;;;;;;19.77;9.37;;;;;;;10.03;100.00;94172.22;5028311;28;20053;-60
2023/10/12 01:01:23;;;;;;;18.98;8.93;;;;;;;10.02;100.00;94164.41;5027371;28;20055;-60
2023/10/12 01:03:50;;;;;;;17.55;8.80;;;;;;;10.07;100.00;94164.75;5028348;28;20056;-60
2023/10/12 01:08:57;;;;;;;14.82;8.52;;;;;;;10.07;100.00;94145.53;5015565;28;20049;-60
2023/10/12 01:11:26;;;;;;;16.57;8.83;;;;;;;10.06;100.00;94152.22;5027663;28;22495;-60
2023/10/12 01:16:54;;;;;;;17.17;8.85;;;;;;;10.03;100.00;94144.03;5027804;28;20041;-60
2023/10/12 01:19:22;;;;;;;17.85;8.77;;;;;;;9.94;100.00;94148.03;5027194;28;20061;-60
2023/10/12 01:22:12;;;;;;;17.13;8.75;;;;;;;9.91;100.00;94140.59;5027920;28;20038;-60
2023/10/12 01:25:11;;;;;;;19.70;9.50;;;;;;;9.92;100.00;94138.63;5027166;28;21381;-60
2023/10/12 01:27:31;;;;;;;18.88;8.77;;;;;;;9.80;100.00;94148.94;5025109;28;21287;-60
2023/10/12 01:30:01;;;;;;;15.70;8.65;;;;;;;9.79;100.00;94139.13;5024964;28;20053;-60
2023/10/12 01:32:28;;;;;;;18.23;9.02;;;;;;;9.87;100.00;94136.34;5027587;28;20470;-60
2023/10/12 01:35:02;;;;;;;15.68;8.35;;;;;;;9.88;100.00;94135.94;5027685;28;20051;-60
2023/10/12 01:37:41;;;;;;;17.73;8.33;;;;;;;9.87;100.00;94139.09;5027055;28;20598;-60
2023/10/12 01:40:12;;;;;;;16.95;8.63;;;;;;;9.84;100.00;94132.47;5027715;28;20042;-60
2023/10/12 01:47:56;;;;;;;17.58;9.23;;;;;;;9.77;100.00;94143.47;5014816;28;20045;-60
2023/10/12 01:50:27;;;;;;;18.67;9.20;;;;;;;9.77;100.00;94132.50;5027664;28;20529;-60
2023/10/12 01:52:58;;;;;;;19.98;9.90;;;;;;;9.61;100.00;94135.78;5027783;28;20088;-59
2023/10/12 01:55:30;;;;;;;18.52;9.38;;;;;;;9.59;100.00;94133.44;5027234;28;20049;-59
2023/10/12 01:57:58;;;;;;;18.73;9.43;;;;;;;9.50;100.00;94133.13;5027629;28;20038;-60
2023/10/12 02:00:38;;;;;;;18.63;9.57;;;;;;;9.56;100.00;94137.00;5025773;28;20049;-60
2023/10/12 02:03:54;;;;;;;18.17;9.50;;;;;;;9.56;100.00;94145.22;5027322;28;20050;-60
2023/10/12 02:06:13;;;;;;;18.77;9.52;;;;;;;9.60;100.00;94136.97;5019542;28;20053;-60
2023/10/12 02:08:46;;;;;;;17.98;9.77;;;;;;;9.50;100.00;94138.59;5026744;28;21002;-60
2023/10/12 02:13:41;;;;;;;19.23;9.77;;;;;;;9.47;100.00;94133.91;5014864;28;20041;-59
2023/10/12 02:16:12;;;;;;;16.83;9.30;;;;;;;9.45;100.00;94133.53;5025462;28;20126;-60
2023/10/12 02:18:40;;;;;;;18.23;9.50;;;;;;;9.46;100.00;94129.63;5027719;28;20056;-60
2023/10/12 02:21:10;;;;;;;20.10;9.85;;;;;;;9.39;100.00;94133.19;5026462;28;20041;-60
2023/10/12 02:23:39;;;;;;;20.33;9.73;;;;;;;9.38;100.00;94130.88;5027225;28;20049;-59
2023/10/12 02:26:11;;;;;;;20.02;9.25;;;;;;;9.39;100.00;94126.94;5024948;28;20057;-60
2023/10/12 02:28:38;;;;;;;17.27;8.87;;;;;;;9.37;100.00;94132.03;5028245;28;20050;-60
2023/10/12 02:31:05;;;;;;;19.52;9.60;;;;;;;9.35;100.00;94132.44;5027511;28;20041;-60
2023/10/12 02:33:36;;;;;;;18.88;9.88;;;;;;;9.39;100.00;94132.41;5028128;28;20048;-59
2023/10/12 02:36:06;;;;;;;16.58;9.07;;;;;;;9.39;100.00;94132.41;5028319;28;20555;-59
2023/10/12 02:38:36;;;;;;;16.33;9.10;;;;;;;9.38;100.00;94136.34;5028519;28;20589;-60
2023/10/12 02:41:04;;;;;;;20.07;9.53;;;;;;;9.34;100.00;94130.88;5031908;28;20106;-59
2023/10/12 02:43:32;;;;;;;18.60;10.30;;;;;;;9.23;100.00;94140.34;5030896;28;21603;-60
2023/10/12 02:46:06;;;;;;;19.85;9.55;;;;;;;9.23;100.00;94134.88;5031850;28;20410;-59
2023/10/12 02:48:36;;;;;;;17.35;9.45;;;;;;;9.22;100.00;94138.81;5031033;28;20242;-59
2023/10/12 02:51:06;;;;;;;20.77;9.75;;;;;;;9.19;100.00;94132.16;5018803;28;20107;-60
2023/10/12 02:53:35;;;;;;;18.43;9.47;;;;;;;9.19;100.00;94132.16;5029311;28;20606;-59
2023/10/12 02:56:01;;;;;;;22.45;10.35;;;;;;;9.14;100.00;94130.63;5031595;28;20046;-60
2023/10/12 02:58:30;;;;;;;19.33;10.20;;;;;;;9.11;100.00;94134.16;5030817;28;20041;-60
2023/10/12 03:01:12;;;;;;;20.95;9.73;;;;;;;9.16;100.00;94132.97;5031417;28;20080;-60
2023/10/12 03:03:48;;;;;;;17.60;9.25;;;;;;;9.14;100.00;94138.84;5030774;28;20621;-59
2023/10/12 03:06:23;;;;;;;16.07;9.00;;;;;;;9.16;100.00;94133.75;5029637;28;20418;-59
2023/10/12 03:11:31;;;;;;;30.13;14.88;;;;;;;9.17;100.00;94143.50;5029942;28;20051;-60
2023/10/12 03:16:26;;;;;;;22.05;10.18;;;;;;;9.19;100.00;94140.38;5030618;28;20149;-59
2023/10/12 03:19:00;;;;;;;18.23;10.20;;;;;;;9.14;100.00;94132.59;5030857;28;20045;-60
2023/10/12 03:21:28;;;;;;;18.80;9.75;;;;;;;9.15;100.00;94139.63;5030835;28;20041;-59
2023/10/12 03:23:57;;;;;;;18.23;10.38;;;;;;;9.16;100.00;94132.97;5030708;28;20057;-59
2023/10/12 03:26:24;;;;;;;19.30;9.77;;;;;;;9.15;100.00;94140.38;5028584;28;20041;-60
2023/10/12 03:29:18;;;;;;;19.80;9.68;;;;;;;9.11;100.00;94134.16;5031005;28;20060;-58
2023/10/12 03:37:01;;;;;;;18.48;10.23;;;;;;;8.92;100.00;94149.13;5030127;28;20049;-58
2023/10/12 03:39:30;;;;;;;17.45;9.55;;;;;;;9.03;100.00;94149.06;5029403;28;20033;-58
2023/10/12 03:44:54;;;;;;;17.90;8.97;;;;;;;9.13;100.00;94150.19;5029417;28;20825;-59
2023/10/12 03:57:45;;;;;;;20.63;8.80;;;;;;;9.07;100.00;94138.09;5029524;28;20195;-59
2023/10/12 04:18:41;;;;;;;18.35;9.20;;;;;;;9.02;100.00;94136.56;5028864;28;20096;-59
2023/10/12 04:21:22;;;;;;;21.20;9.35;;;;;;;9.05;100.00;94138.50;5028589;28;20063;-58
2023/10/12 04:24:27;;;;;;;17.80;9.47;;;;;;;9.05;100.00;94135.75;5027779;28;20057;-59
2023/10/12 04:29:13;;;;;;;18.80;9.90;;;;;;;9.08;100.00;94137.72;5029518;28;20065;-59
2023/10/12 04:31:49;;;;;;;18.40;9.75;;;;;;;9.09;100.00;94142.00;5029104;28;20912;-58
2023/10/12 04:34:20;;;;;;;21.33;9.68;;;;;;;9.09;100.00;94142.00;5029367;28;20060;-58
2023/10/12 04:37:07;;;;;;;22.67;9.93;;;;;;;9.05;100.00;94149.44;5029884;28;20041;-59
2023/10/12 04:39:37;;;;;;;20.52;10.23;;;;;;;8.97;100.00;94150.66;5028663;28;21013;-59
2023/10/12 04:42:11;;;;;;;19.98;10.27;;;;;;;8.97;100.00;94154.19;5029513;28;20453;-59
2023/10/12 04:44:43;;;;;;;18.15;9.75;;;;;;;8.97;100.00;94142.44;5028794;28;20832;-58
2023/10/12 04:47:12;;;;;;;16.27;9.32;;;;;;;9.02;100.00;94144.00;5028890;28;20048;-58
2023/10/12 04:57:30;;;;;;;20.20;9.35;;;;;;;8.93;100.00;94144.44;5028419;28;20037;-58
2023/10/12 05:07:56;;;;;;;18.48;9.63;;;;;;;8.89;100.00;94144.44;5028735;28;20072;-58
2023/10/12 05:13:05;;;;;;;18.15;9.15;;;;;;;8.85;100.00;94142.91;5029205;28;20107;-58
2023/10/12 05:15:42;;;;;;;18.53;9.37;;;;;;;8.76;100.00;94146.88;5028261;28;20728;-59
2023/10/12 05:18:10;;;;;;;20.00;9.05;;;;;;;8.82;100.00;94143.72;5016151;28;20045;-58
2023/10/12 05:20:43;;;;;;;17.70;9.60;;;;;;;8.80;100.00;94146.84;5028558;28;20043;-59
2023/10/12 05:23:11;;;;;;;20.25;11.32;;;;;;;8.73;100.00;94144.13;5027778;28;20044;-58
2023/10/12 05:25:53;;;;;;;20.73;10.70;;;;;;;8.69;100.00;94148.84;5010903;28;20375;-58
2023/10/12 05:28:27;;;;;;;20.57;9.30;;;;;;;8.62;100.00;94148.91;5028471;28;20120;-59
2023/10/12 05:30:59;;;;;;;20.23;10.02;;;;;;;8.64;100.00;94149.28;5028602;28;20055;-59
2023/10/12 05:36:12;;;;;;;21.02;9.82;;;;;;;8.57;100.00;94147.31;5029024;28;20051;-60
2023/10/12 05:38:51;;;;;;;20.17;10.30;;;;;;;8.63;100.00;94140.25;5027729;28;20394;-60
2023/10/12 05:41:34;;;;;;;20.23;9.87;;;;;;;8.51;100.00;94148.91;5028325;28;20083;-60
2023/10/12 05:44:08;;;;;;;21.35;10.07;;;;;;;8.58;100.00;94144.19;5028590;28;20045;-59
2023/10/12 05:46:36;;;;;;;19.50;10.52;;;;;;;8.58;100.00;94144.19;5027384;28;20645;-60
2023/10/12 05:49:13;;;;;;;19.50;10.23;;;;;;;8.63;100.00;94142.22;5028764;28;20045;-60
2023/10/12 05:51:44;;;;;;;19.52;10.43;;;;;;;8.64;100.00;94136.38;5027485;28;20900;-59
2023/10/12 05:54:15;;;;;;;21.30;10.77;;;;;;;8.64;100.00;94136.38;5028199;28;20052;-60
2023/10/12 05:56:43;;;;;;;19.85;10.07;;;;;;;8.74;100.00;94149.22;5028275;28;20041;-59
2023/10/12 05:59:13;;;;;;;19.50;9.43;;;;;;;8.78;100.00;94149.22;5027734;28;20046;-59
2023/10/12 06:01:46;;;;;;;15.65;9.25;;;;;;;8.87;100.00;94156.97;5028259;28;20106;-59
2023/10/12 06:04:15;;;;;;;17.00;9.32;;;;;;;8.93;100.00;94156.19;5027477;28;20053;-60
2023/10/12 06:06:43;;;;;;;19.77;9.57;;;;;;;9.09;100.00;94168.59;5027034;28;20047;-61
2023/10/12 06:09:20;;;;;;;19.88;9.55;;;;;;;9.15;100.00;94162.28;5027718;28;20175;-60
2023/10/12 06:11:48;;;;;;;18.30;9.68;;;;;;;9.33;100.00;94164.91;5027293;28;20084;-60
2023/10/12 06:14:20;;;;;;;21.95;10.70;;;;;;;9.37;100.00;94162.16;5027479;28;20517;-60
2023/10/12 06:16:47;;;;;;;20.42;10.65;;;;;;;9.35;100.00;94164.53;5028173;28;20095;-60
2023/10/12 06:19:26;;;;;;;20.57;10.47;;;;;;;9.50;100.00;94166.00;5027384;28;20040;-60
2023/10/12 06:22:19;;;;;;;18.83;10.15;;;;;;;9.66;100.00;94162.75;5028181;28;20041;-59
2023/10/12 06:24:52;;;;;;;19.23;10.68;;;;;;;9.75;100.00;94176.75;5017075;28;20623;-59
2023/10/12 06:29:47;;;;;;;22.52;11.60;;;;;;;9.80;100.00;94178.31;5025936;28;20102;-60
2023/10/12 06:32:25;;;;;;;23.13;12.10;;;;;;;9.78;100.00;94180.66;5027117;28;20052;-60
2023/10/12 06:35:11;;;;;;;20.80;11.15;;;;;;;9.80;100.00;94181.03;5028109;28;20672;-60
2023/10/12 06:45:46;;;;;;;19.73;11.20;;;;;;;10.29;100.00;94191.97;5026606;28;21621;-59
2023/10/12 06:51:03;;;;;;;21.67;11.73;;;;;;;10.44;100.00;94189.88;5027379;28;20057;-60
2023/10/12 06:53:34;;;;;;;24.20;11.88;;;;;;;10.70;100.00;94199.41;5026502;28;20383;-60
2023/10/12 07:01:43;;;;;;;23.40;12.02;;;;;;;11.28;100.00;94188.50;5026572;28;21781;-60
2023/10/12 07:04:14;;;;;;;18.98;10.32;;;;;;;12.63;100.00;94197.75;5027442;28;20075;-60
2023/10/12 07:06:56;;;;;;;16.15;8.98;;;;;;;14.80;100.00;94192.53;5027974;28;20043;-59
2023/10/12 07:09:28;;;;;;;15.73;9.23;;;;;;;14.61;100.00;94192.22;5027418;28;20053;-60
2023/10/12 07:11:55;;;;;;;15.60;9.30;;;;;;;16.27;100.00;94199.25;5027743;28;20051;-60
2023/10/12 07:14:31;;;;;;;17.95;8.70;;;;;;;17.75;100.00;94187.31;5025761;28;20041;-60
2023/10/12 07:17:01;;;;;;;16.85;8.57;;;;;;;18.63;100.00;94180.63;5027861;28;20049;-60
2023/10/12 07:19:28;;;;;;;17.02;8.52;;;;;;;17.94;100.00;94182.63;5027031;28;20049;-60
2023/10/12 07:21:55;;;;;;;17.95;9.50;;;;;;;18.63;100.00;94172.28;5027572;28;20433;-60
2023/10/12 07:24:26;;;;;;;19.83;10.77;;;;;;;18.76;100.00;94182.03;5029901;28;20041;-60
2023/10/12 07:26:52;;;;;;;20.48;10.85;;;;;;;18.60;100.00;94187.88;5031006;28;20477;-60
2023/10/12 07:29:35;;;;;;;20.17;11.80;;;;;;;18.92;98.65;94191.34;5028710;28;20053;-60
2023/10/12 07:32:31;;;;;;;19.90;11.93;;;;;;;19.02;96.97;94203.25;5031055;28;20052;-60
2023/10/12 07:34:58;;;;;;;18.45;10.80;;;;;;;17.69;100.00;94200.22;5030233;28;21724;-60
2023/10/12 07:37:27;;;;;;;17.73;10.87;;;;;;;18.36;100.00;94193.25;5030341;28;20045;-60
2023/10/12 07:39:54;;;;;;;18.23;11.50;;;;;;;19.68;96.51;94197.09;5030489;28;20410;-60
2023/10/12 07:42:27;;;;;;;19.60;11.35;;;;;;;18.87;97.47;94201.06;5030232;28;20067;-60
2023/10/12 07:44:54;;;;;;;17.45;9.75;;;;;;;20.83;90.63;94197.25;5030836;28;20068;-60
2023/10/12 07:47:40;;;;;;;18.27;9.52;;;;;;;22.43;79.78;94201.09;5030203;28;20379;-60
2023/10/12 07:50:12;;;;;;;15.00;8.67;;;;;;;21.24;82.75;94201.09;5030001;28;20437;-60
2023/10/12 07:52:48;;;;;;;17.35;8.75;;;;;;;19.32;95.22;94212.66;5030782;28;20042;-62
2023/10/12 07:55:17;;;;;;;14.45;8.52;;;;;;;18.65;100.00;94217.06;5030285;28;20039;-60
2023/10/12 07:57:46;;;;;;;17.63;8.70;;;;;;;17.70;100.00;94210.84;5030771;28;20037;-60
2023/10/12 08:05:19;;;;;;;15.20;8.35;;;;;;;18.15;100.00;94178.22;5030283;28;20045;-60
2023/10/12 08:24:10;;;;;;;15.27;8.20;;;;;;;18.95;100.00;94185.63;4996215;28;20044;-60
2023/10/12 08:31:55;;;;;;;12.60;8.00;;;;;;;20.97;89.19;94174.22;5021748;28;20064;-60
2023/10/12 08:45:09;;;;;;;13.13;7.78;;;;;;;18.47;100.00;94165.00;5014432;28;20033;-60
2023/10/12 08:52:50;;;;;;;15.07;7.43;;;;;;;18.89;100.00;94164.44;5029131;28;20049;-60
2023/10/12 08:55:19;;;;;;;15.53;7.13;;;;;;;19.49;100.00;94168.56;5025889;28;20047;-59
2023/10/12 08:58:11;;;;;;;13.85;7.22;;;;;;;19.61;100.00;94173.16;5019780;28;20418;-60
2023/10/12 09:00:44;;;;;;;15.77;6.53;;;;;;;19.95;96.78;94160.84;5028425;28;21421;-60
2023/10/12 09:05:41;;;;;;;11.55;5.82;;;;;;;22.13;84.55;94178.00;5016450;28;20291;-60
2023/10/12 09:08:39;;;;;;;10.73;5.73;;;;;;;23.55;74.56;94172.19;5028707;28;20071;-60
2023/10/12 09:11:25;;;;;;;11.20;5.75;;;;;;;23.99;71.61;94168.28;5029446;28;20086;-60
2023/10/12 09:13:47;;;;;;;8.85;5.13;;;;;;;24.47;62.58;94164.81;5028430;28;20469;-60
2023/10/12 09:16:15;;;;;;;14.55;5.53;;;;;;;24.38;64.53;94154.53;5028877;28;20140;-60
2023/10/12 09:23:58;;;;;;;9.38;4.72;;;;;;;25.57;55.00;94149.41;5027568;28;20041;-60
2023/10/12 09:26:30;;;;;;;9.57;4.68;;;;;;;25.08;56.08;94141.13;5024248;28;20050;-61
2023/10/12 09:29:08;;;;;;;8.18;4.82;;;;;;;25.19;55.71;94154.41;5027239;28;20057;-60
2023/10/12 09:36:53;;;;;;;9.57;5.00;;;;;;;24.09;56.89;94155.63;5028320;28;20041;-60
2023/10/12 09:39:28;;;;;;;10.10;5.28;;;;;;;24.58;56.05;94153.66;5027799;28;20053;-60
2023/10/12 09:42:09;;;;;;;8.63;4.95;;;;;;;24.75;54.02;94156.56;5028738;28;20072;-60
2023/10/12 09:44:39;;;;;;;11.45;5.05;;;;;;;25.08;53.27;94149.53;5007708;28;20487;-61
2023/10/12 09:47:11;;;;;;;9.40;5.00;;;;;;;25.59;51.76;94156.06;5007229;28;20046;-60
2023/10/12 09:49:46;;;;;;;10.38;4.70;;;;;;;26.14;49.55;94151.03;5009013;28;20499;-60
2023/10/12 09:52:15;;;;;;;9.68;4.40;;;;;;;27.89;45.81;94141.94;5008283;28;20046;-60
2023/10/12 09:55:13;;;;;;;10.13;4.50;;;;;;;27.23;44.97;94153.03;5008697;28;20034;-61
2023/10/12 09:57:49;;;;;;;8.45;4.43;;;;;;;25.36;46.93;94155.25;5027566;28;20476;-61
2023/10/12 10:03:08;;;;;;;9.00;4.82;;;;;;;25.31;49.11;94158.81;5027861;28;20053;-59
2023/10/12 10:05:54;;;;;;;10.35;4.82;;;;;;;26.36;47.24;94143.81;5027817;28;20056;-60
2023/10/12 10:08:29;;;;;;;8.68;4.40;;;;;;;25.78;46.97;94156.34;5027680;28;20041;-60
2023/10/12 10:10:57;;;;;;;8.70;4.55;;;;;;;26.13;45.84;94148.72;5028324;28;20292;-61
2023/10/12 10:13:41;;;;;;;10.60;4.70;;;;;;;28.21;43.05;94145.00;5027513;28;20053;-61
2023/10/12 10:16:09;;;;;;;9.57;4.40;;;;;;;28.27;41.47;94153.38;5027772;28;20045;-61
2023/10/12 10:18:49;;;;;;;8.50;4.55;;;;;;;29.71;38.83;94147.16;5028196;28;20059;-61
2023/10/12 10:21:19;;;;;;;10.43;4.10;;;;;;;31.91;35.35;94131.72;5027821;28;20054;-61
2023/10/12 10:23:48;;;;;;;6.57;4.18;;;;;;;31.23;34.46;94144.53;5028076;28;20042;-61
2023/10/12 10:26:23;;;;;;;7.40;4.03;;;;;;;30.41;34.78;94132.94;5025403;28;20397;-62
2023/10/12 10:29:17;;;;;;;8.05;4.35;;;;;;;28.43;37.82;94146.06;5012514;28;20044;-61
2023/10/12 10:31:43;;;;;;;7.55;4.38;;;;;;;28.87;37.87;94150.50;5024242;28;21189;-61
2023/10/12 10:34:14;;;;;;;8.38;4.18;;;;;;;28.40;38.65;94153.53;5027904;28;20041;-62
2023/10/12 10:36:44;;;;;;;10.25;4.47;;;;;;;28.82;38.57;94154.16;5028103;28;20044;-61
2023/10/12 10:41:54;;;;;;;10.93;4.78;;;;;;;28.77;37.75;94154.97;5027892;28;20683;-61
2023/10/12 10:44:22;;;;;;;9.20;4.50;;;;;;;28.31;38.58;94162.34;5027286;28;20038;-61
2023/10/12 10:46:57;;;;;;;9.18;4.20;;;;;;;28.17;39.08;94157.84;5028111;28;20479;-61
2023/10/12 10:49:34;;;;;;;7.40;4.40;;;;;;;27.95;39.80;94156.75;5027283;28;20049;-61
2023/10/12 10:54:39;;;;;;;8.15;4.40;;;;;;;31.07;34.11;94157.75;5026999;28;20038;-61
2023/10/12 10:57:17;;;;;;;9.82;4.30;;;;;;;30.58;35.14;94153.22;5027490;28;20057;-61
2023/10/12 10:59:44;;;;;;;7.75;4.20;;;;;;;32.26;32.59;94144.59;5031299;28;20409;-61
2023/10/12 11:02:18;;;;;;;10.35;4.28;;;;;;;32.44;32.11;94140.00;5031300;28;20048;-62
2023/10/12 11:04:46;;;;;;;8.80;4.30;;;;;;;34.41;29.77;94139.25;5031389;28;20059;-61
2023/10/12 11:07:15;;;;;;;7.10;3.80;;;;;;;34.15;29.24;94134.66;5030941;28;20051;-61
2023/10/12 11:12:24;;;;;;;7.18;3.70;;;;;;;31.59;30.21;94127.81;5029988;28;20099;-61
2023/10/12 11:14:58;;;;;;;10.43;4.10;;;;;;;33.82;27.60;94122.97;5031325;28;20045;-61
2023/10/12 11:17:30;;;;;;;7.23;3.60;;;;;;;34.60;26.67;94122.50;5031152;28;20122;-62
2023/10/12 11:19:58;;;;;;;6.95;3.83;;;;;;;34.79;26.22;94118.50;5031048;28;20045;-60
2023/10/12 11:22:25;;;;;;;6.82;3.28;;;;;;;31.58;28.63;94114.91;5030632;28;20099;-61
2023/10/12 11:24:57;;;;;;;7.68;3.85;;;;;;;29.70;31.24;94120.94;5016732;28;20318;-60
2023/10/12 11:27:34;;;;;;;8.13;3.63;;;;;;;29.92;31.42;94111.34;5029023;28;20045;-60
2023/10/12 11:30:12;;;;;;;9.80;3.80;;;;;;;30.16;30.90;94104.75;5028327;28;20038;-60
2023/10/12 11:32:53;;;;;;;8.50;3.80;;;;;;;29.12;31.78;94112.97;5022329;28;20434;-60
2023/10/12 11:35:40;;;;;;;10.05;4.10;;;;;;;27.94;33.49;94115.72;5030283;28;20047;-60
2023/10/12 11:38:18;;;;;;;8.00;3.75;;;;;;;28.02;33.89;94101.81;5030047;28;20051;-60
2023/10/12 11:40:52;;;;;;;9.77;4.07;;;;;;;27.37;35.06;94095.59;5030301;28;20041;-62
2023/10/12 11:43:29;;;;;;;8.30;3.97;;;;;;;27.97;35.17;94111.06;5030126;28;20045;-59
2023/10/12 11:46:05;;;;;;;10.35;3.83;;;;;;;26.85;35.26;94104.81;5030381;28;20060;-61
2023/10/12 11:48:32;;;;;;;11.13;3.80;;;;;;;27.44;34.46;94095.03;5017249;28;21580;-63
2023/10/12 11:51:00;;;;;;;6.35;3.55;;;;;;;27.69;35.15;94107.19;5030138;28;20095;-62
2023/10/12 11:53:28;;;;;;;9.05;3.70;;;;;;;27.53;33.92;94101.63;5029592;28;20042;-61
2023/10/12 11:56:04;;;;;;;8.50;3.50;;;;;;;26.87;33.67;94094.56;5030388;28;20122;-62
2023/10/12 11:58:32;;;;;;;7.85;3.70;;;;;;;27.37;34.43;94089.22;5029156;28;20041;-60
2023/10/12 12:01:00;;;;;;;9.38;3.63;;;;;;;26.57;34.79;94094.41;5029738;28;20045;-61
2023/10/12 12:03:27;;;;;;;8.18;3.60;;;;;;;27.01;34.27;94098.34;5029198;28;20038;-61
2023/10/12 12:05:54;;;;;;;8.95;3.80;;;;;;;27.36;33.74;94090.50;5029085;28;20046;-61
2023/10/12 12:08:24;;;;;;;8.33;3.40;;;;;;;27.63;32.75;94098.00;5029581;28;20042;-61
2023/10/12 12:10:55;;;;;;;6.78;3.47;;;;;;;26.61;33.96;94091.34;5029121;28;20057;-61
2023/10/12 12:13:23;;;;;;;8.88;3.63;;;;;;;26.06;34.89;94085.31;5029489;28;20046;-61
2023/10/12 12:15:55;;;;;;;7.15;3.50;;;;;;;25.69;36.10;94094.75;5027905;28;20053;-60
2023/10/12 12:18:22;;;;;;;11.43;3.33;;;;;;;25.26;35.96;94084.50;5029340;28;20049;-61
2023/10/12 12:20:53;;;;;;;10.03;3.40;;;;;;;25.38;35.66;94076.84;5029828;28;20494;-60
2023/10/12 12:23:27;;;;;;;7.25;3.40;;;;;;;25.22;36.64;94083.22;5028943;28;20041;-60
2023/10/12 12:26:33;;;;;;;8.02;3.50;;;;;;;24.88;37.01;94078.25;5027672;28;20046;-60
2023/10/12 12:28:50;;;;;;;9.27;3.75;;;;;;;24.58;37.50;94072.28;5016741;28;21494;-60
2023/10/12 12:31:17;;;;;;;7.00;3.50;;;;;;;24.74;37.51;94075.66;5027585;28;20067;-60
2023/10/12 12:33:44;;;;;;;9.17;3.37;;;;;;;24.68;37.56;94073.59;5028939;28;20046;-60
2023/10/12 12:36:13;;;;;;;7.80;3.40;;;;;;;24.66;37.72;94067.72;5027534;28;20082;-60
2023/10/12 12:41:18;;;;;;;9.02;3.38;;;;;;;25.07;37.13;94064.53;5028609;28;20045;-61
2023/10/12 12:43:48;;;;;;;8.50;3.78;;;;;;;25.37;36.14;94055.66;5029401;28;20475;-61
2023/10/12 12:46:16;;;;;;;8.03;3.50;;;;;;;25.73;36.28;94064.34;5028770;28;20045;-60
2023/10/12 12:48:45;;;;;;;9.20;3.15;;;;;;;25.78;35.43;94063.59;5028873;28;20431;-60
2023/10/12 12:51:15;;;;;;;9.05;3.28;;;;;;;26.41;34.70;94072.69;5028650;28;20114;-60
2023/10/12 12:53:48;;;;;;;7.18;3.28;;;;;;;26.23;34.04;94069.16;5028580;28;20045;-60
2023/10/12 12:56:20;;;;;;;7.72;3.13;;;;;;;26.41;33.57;94072.69;5028575;28;20049;-61
2023/10/12 12:58:48;;;;;;;8.67;3.20;;;;;;;26.12;33.22;94072.00;5027427;28;20057;-61
2023/10/12 13:01:17;;;;;;;7.15;3.45;;;;;;;26.80;32.85;94058.50;5027917;28;20373;-61
2023/10/12 13:03:45;;;;;;;7.75;3.17;;;;;;;26.46;33.43;94061.44;5028791;28;20053;-61
2023/10/12 13:06:15;;;;;;;5.82;3.13;;;;;;;26.98;33.11;94065.56;5028379;28;20102;-61
2023/10/12 13:08:42;;;;;;;9.30;3.30;;;;;;;26.19;32.88;94060.22;5015591;28;20041;-61
2023/10/12 13:11:11;;;;;;;6.43;3.03;;;;;;;26.50;32.51;94061.16;5028264;28;20053;-62
2023/10/12 13:13:41;;;;;;;7.75;3.33;;;;;;;26.15;32.75;94061.78;5028662;28;20041;-61
2023/10/12 13:16:12;;;;;;;9.23;3.70;;;;;;;25.98;33.07;94061.78;5028153;28;20049;-60
2023/10/12 13:18:46;;;;;;;8.63;3.50;;;;;;;25.96;33.02;94065.13;5028575;28;20037;-61
2023/10/12 13:21:14;;;;;;;8.45;3.03;;;;;;;25.96;33.14;94073.56;5027525;28;20049;-60
2023/10/12 13:23:43;;;;;;;6.47;3.00;;;;;;;25.75;32.25;94067.41;5028105;28;20045;-60
2023/10/12 13:26:12;;;;;;;10.65;3.00;;;;;;;25.75;33.04;94072.28;5028090;28;20061;-60
2023/10/12 13:28:42;;;;;;;7.45;3.10;;;;;;;25.09;33.49;94073.22;5028072;28;20075;-60
2023/10/12 13:31:12;;;;;;;10.75;3.20;;;;;;;24.77;33.97;94083.06;5027814;28;20045;-61
2023/10/12 13:33:43;;;;;;;7.22;3.00;;;;;;;25.21;32.83;94073.22;5028255;28;20417;-61
2023/10/12 13:36:10;;;;;;;6.40;2.80;;;;;;;25.28;33.41;94076.34;5027771;28;20056;-60
2023/10/12 13:38:37;;;;;;;7.68;3.10;;;;;;;25.14;33.30;94063.25;5027918;28;20055;-60
2023/10/12 13:41:05;;;;;;;8.27;2.92;;;;;;;24.87;33.88;94073.94;5028140;28;20056;-60
2023/10/12 13:43:34;;;;;;;10.45;3.25;;;;;;;25.31;33.16;94072.53;5027218;28;20432;-60
2023/10/12 13:46:08;;;;;;;8.27;2.90;;;;;;;25.08;33.88;94068.88;5028116;28;20053;-60
2023/10/12 13:48:40;;;;;;;7.70;2.80;;;;;;;24.79;34.64;94069.28;5026548;28;20759;-60
2023/10/12 13:51:17;;;;;;;8.07;3.58;;;;;;;24.52;34.38;94077.09;5027785;28;20045;-60
2023/10/12 13:53:46;;;;;;;9.05;3.35;;;;;;;24.59;34.80;94073.81;5027443;28;20051;-60
2023/10/12 13:56:13;;;;;;;7.22;3.10;;;;;;;24.66;34.82;94062.09;5026837;28;20051;-60
2023/10/12 13:58:41;;;;;;;7.00;3.10;;;;;;;24.69;34.75;94068.78;5028610;28;20429;-60
2023/10/12 14:01:20;;;;;;;7.77;2.97;;;;;;;24.81;34.64;94061.91;5027753;28;20052;-60
2023/10/12 14:04:00;;;;;;;6.43;3.15;;;;;;;24.95;34.58;94059.38;5028750;28;20117;-60
2023/10/12 14:06:27;;;;;;;7.32;3.20;;;;;;;24.84;34.75;94055.28;5026320;28;20044;-60
2023/10/12 14:08:58;;;;;;;21.13;3.55;;;;;;;24.63;34.79;94053.91;5028494;28;20237;-60
2023/10/12 14:11:25;;;;;;;9.70;3.30;;;;;;;24.83;34.65;94052.97;5027425;28;20118;-60
2023/10/12 14:13:52;;;;;;;10.60;3.00;;;;;;;24.76;34.69;94048.63;5028198;28;20054;-61
2023/10/12 14:16:19;;;;;;;7.85;3.10;;;;;;;24.55;34.83;94048.06;5027561;28;20052;-60
2023/10/12 14:18:49;;;;;;;9.30;3.35;;;;;;;24.42;36.21;94050.50;5028436;28;20042;-60
2023/10/12 14:21:18;;;;;;;6.30;3.28;;;;;;;24.60;35.53;94052.13;5027878;28;20041;-61
2023/10/12 14:23:50;;;;;;;11.13;3.30;;;;;;;24.68;35.64;94047.56;5027794;28;20111;-60
2023/10/12 14:26:17;;;;;;;7.23;3.00;;;;;;;24.55;35.06;94048.06;5027879;28;20041;-61
2023/10/12 14:28:50;;;;;;;7.40;2.85;;;;;;;24.24;35.13;94052.47;5028049;28;20053;-61
2023/10/12 14:31:20;;;;;;;9.48;3.00;;;;;;;24.13;35.30;94053.16;5027667;28;20046;-61
2023/10/12 14:33:48;;;;;;;9.38;3.30;;;;;;;24.32;34.87;94056.31;5029749;28;20041;-61
2023/10/12 14:36:16;;;;;;;10.20;3.10;;;;;;;24.42;34.56;94051.28;5031465;28;20049;-61
2023/10/12 14:38:45;;;;;;;9.17;3.40;;;;;;;24.17;34.31;94047.34;5031755;28;20041;-61
2023/10/12 14:41:16;;;;;;;7.68;3.10;;;;;;;23.73;34.17;94054.94;5031424;28;20516;-61